sensor_id;sensor_type;location;lat;lon;timestamp;P1;durP1;ratioP1;P2;durP2;ratioP2
75297;SDS011;63896;45.990;18.688;2023-04-15T00:00:42;10.02;;;3.10;;
75297;SDS011;63896;45.990;18.688;2023-04-15T00:03:45;6.30;;;2.83;;
75297;SDS011;63896;45.990;18.688;2023-04-15T00:06:50;6.65;;;3.00;;
75297;SDS011;63896;45.990;18.688;2023-04-15T00:09:54;6.90;;;3.72;;
75297;SDS011;63896;45.990;18.688;2023-04-15T00:12:59;7.53;;;4.65;;
75297;SDS011;63896;45.990;18.688;2023-04-15T00:16:03;7.88;;;4.75;;
75297;SDS011;63896;45.990;18.688;2023-04-15T00:19:07;9.53;;;4.83;;
75297;SDS011;63896;45.990;18.688;2023-04-15T00:22:11;11.13;;;5.13;;
75297;SDS011;63896;45.990;18.688;2023-04-15T00:25:15;10.55;;;5.10;;
75297;SDS011;63896;45.990;18.688;2023-04-15T00:28:19;6.20;;;3.35;;
75297;SDS011;63896;45.990;18.688;2023-04-15T00:31:22;9.43;;;4.22;;
75297;SDS011;63896;45.990;18.688;2023-04-15T00:34:25;12.13;;;4.60;;
75297;SDS011;63896;45.990;18.688;2023-04-15T00:37:29;11.48;;;4.85;;
75297;SDS011;63896;45.990;18.688;2023-04-15T00:40:32;5.90;;;3.20;;
75297;SDS011;63896;45.990;18.688;2023-04-15T00:43:35;4.95;;;2.90;;
75297;SDS011;63896;45.990;18.688;2023-04-15T00:46:38;5.55;;;3.13;;
75297;SDS011;63896;45.990;18.688;2023-04-15T00:49:42;7.43;;;3.33;;
75297;SDS011;63896;45.990;18.688;2023-04-15T00:52:45;16.20;;;7.05;;
75297;SDS011;63896;45.990;18.688;2023-04-15T00:55:49;9.15;;;4.22;;
75297;SDS011;63896;45.990;18.688;2023-04-15T00:58:53;8.68;;;3.60;;
75297;SDS011;63896;45.990;18.688;2023-04-15T01:01:56;7.28;;;3.67;;
75297;SDS011;63896;45.990;18.688;2023-04-15T01:04:59;7.23;;;3.17;;
75297;SDS011;63896;45.990;18.688;2023-04-15T01:08:02;7.35;;;2.58;;
75297;SDS011;63896;45.990;18.688;2023-04-15T01:11:06;6.10;;;2.90;;
75297;SDS011;63896;45.990;18.688;2023-04-15T01:14:09;6.20;;;3.20;;
75297;SDS011;63896;45.990;18.688;2023-04-15T01:17:12;7.38;;;3.05;;
75297;SDS011;63896;45.990;18.688;2023-04-15T01:20:15;8.60;;;3.40;;
75297;SDS011;63896;45.990;18.688;2023-04-15T01:23:20;6.57;;;3.38;;
75297;SDS011;63896;45.990;18.688;2023-04-15T01:26:24;7.28;;;4.65;;
75297;SDS011;63896;45.990;18.688;2023-04-15T01:29:27;8.57;;;4.55;;
75297;SDS011;63896;45.990;18.688;2023-04-15T01:32:31;10.70;;;3.67;;
75297;SDS011;63896;45.990;18.688;2023-04-15T01:35:33;6.13;;;3.33;;
75297;SDS011;63896;45.990;18.688;2023-04-15T01:38:36;5.70;;;3.30;;
75297;SDS011;63896;45.990;18.688;2023-04-15T01:41:39;9.00;;;4.57;;
75297;SDS011;63896;45.990;18.688;2023-04-15T01:44:43;7.88;;;4.63;;
75297;SDS011;63896;45.990;18.688;2023-04-15T01:47:46;8.30;;;4.82;;
75297;SDS011;63896;45.990;18.688;2023-04-15T01:50:49;8.10;;;5.10;;
75297;SDS011;63896;45.990;18.688;2023-04-15T01:53:53;9.60;;;5.07;;
75297;SDS011;63896;45.990;18.688;2023-04-15T01:56:58;9.70;;;5.07;;
75297;SDS011;63896;45.990;18.688;2023-04-15T02:00:01;9.52;;;5.03;;
75297;SDS011;63896;45.990;18.688;2023-04-15T02:03:14;5.60;;;3.78;;
75297;SDS011;63896;45.990;18.688;2023-04-15T02:06:17;6.53;;;3.70;;
75297;SDS011;63896;45.990;18.688;2023-04-15T02:09:20;6.18;;;3.47;;
75297;SDS011;63896;45.990;18.688;2023-04-15T02:12:23;7.10;;;3.97;;
75297;SDS011;63896;45.990;18.688;2023-04-15T02:15:26;5.57;;;3.33;;
75297;SDS011;63896;45.990;18.688;2023-04-15T02:18:29;4.30;;;2.78;;
75297;SDS011;63896;45.990;18.688;2023-04-15T02:21:32;7.87;;;3.27;;
75297;SDS011;63896;45.990;18.688;2023-04-15T02:24:37;6.72;;;4.20;;
75297;SDS011;63896;45.990;18.688;2023-04-15T02:27:39;6.65;;;3.90;;
75297;SDS011;63896;45.990;18.688;2023-04-15T02:30:46;5.22;;;3.58;;
75297;SDS011;63896;45.990;18.688;2023-04-15T02:33:49;7.53;;;4.03;;
75297;SDS011;63896;45.990;18.688;2023-04-15T02:36:52;7.93;;;4.90;;
75297;SDS011;63896;45.990;18.688;2023-04-15T02:39:59;5.03;;;3.90;;
75297;SDS011;63896;45.990;18.688;2023-04-15T02:43:02;5.35;;;4.00;;
75297;SDS011;63896;45.990;18.688;2023-04-15T02:46:07;4.55;;;3.03;;
75297;SDS011;63896;45.990;18.688;2023-04-15T02:49:10;8.73;;;4.03;;
75297;SDS011;63896;45.990;18.688;2023-04-15T02:52:12;5.57;;;3.30;;
75297;SDS011;63896;45.990;18.688;2023-04-15T02:55:15;7.35;;;4.13;;
75297;SDS011;63896;45.990;18.688;2023-04-15T02:58:19;8.20;;;3.80;;
75297;SDS011;63896;45.990;18.688;2023-04-15T03:01:22;6.35;;;3.55;;
75297;SDS011;63896;45.990;18.688;2023-04-15T03:04:25;10.80;;;3.28;;
75297;SDS011;63896;45.990;18.688;2023-04-15T03:07:31;4.93;;;3.20;;
75297;SDS011;63896;45.990;18.688;2023-04-15T03:10:36;5.68;;;3.17;;
75297;SDS011;63896;45.990;18.688;2023-04-15T03:13:38;5.03;;;3.03;;
75297;SDS011;63896;45.990;18.688;2023-04-15T03:16:53;5.63;;;3.50;;
75297;SDS011;63896;45.990;18.688;2023-04-15T03:19:55;7.68;;;4.82;;
75297;SDS011;63896;45.990;18.688;2023-04-15T03:22:59;7.93;;;5.20;;
75297;SDS011;63896;45.990;18.688;2023-04-15T03:26:03;8.20;;;5.20;;
75297;SDS011;63896;45.990;18.688;2023-04-15T03:29:08;4.97;;;3.58;;
75297;SDS011;63896;45.990;18.688;2023-04-15T03:32:11;6.90;;;3.72;;
75297;SDS011;63896;45.990;18.688;2023-04-15T03:35:16;7.30;;;3.17;;
75297;SDS011;63896;45.990;18.688;2023-04-15T03:38:19;5.00;;;3.37;;
75297;SDS011;63896;45.990;18.688;2023-04-15T03:41:22;7.18;;;3.42;;
75297;SDS011;63896;45.990;18.688;2023-04-15T03:44:26;6.40;;;3.97;;
75297;SDS011;63896;45.990;18.688;2023-04-15T03:47:29;8.32;;;4.57;;
75297;SDS011;63896;45.990;18.688;2023-04-15T03:50:32;7.72;;;4.57;;
75297;SDS011;63896;45.990;18.688;2023-04-15T03:53:35;7.03;;;4.33;;
75297;SDS011;63896;45.990;18.688;2023-04-15T03:56:38;7.82;;;4.00;;
75297;SDS011;63896;45.990;18.688;2023-04-15T03:59:41;8.77;;;5.20;;
75297;SDS011;63896;45.990;18.688;2023-04-15T04:02:44;13.45;;;6.35;;
75297;SDS011;63896;45.990;18.688;2023-04-15T04:05:47;10.43;;;5.38;;
75297;SDS011;63896;45.990;18.688;2023-04-15T04:08:51;8.97;;;4.40;;
75297;SDS011;63896;45.990;18.688;2023-04-15T04:11:54;6.55;;;3.80;;
75297;SDS011;63896;45.990;18.688;2023-04-15T04:14:57;8.68;;;4.85;;
75297;SDS011;63896;45.990;18.688;2023-04-15T04:18:00;9.48;;;5.20;;
75297;SDS011;63896;45.990;18.688;2023-04-15T04:21:03;7.22;;;4.45;;
75297;SDS011;63896;45.990;18.688;2023-04-15T04:24:06;10.63;;;4.73;;
75297;SDS011;63896;45.990;18.688;2023-04-15T04:27:09;12.75;;;6.32;;
75297;SDS011;63896;45.990;18.688;2023-04-15T04:30:12;11.73;;;6.68;;
75297;SDS011;63896;45.990;18.688;2023-04-15T04:33:15;8.00;;;4.15;;
75297;SDS011;63896;45.990;18.688;2023-04-15T04:36:18;8.63;;;5.45;;
75297;SDS011;63896;45.990;18.688;2023-04-15T04:39:21;7.43;;;4.47;;
75297;SDS011;63896;45.990;18.688;2023-04-15T04:42:23;6.63;;;3.80;;
75297;SDS011;63896;45.990;18.688;2023-04-15T04:45:26;6.45;;;3.80;;
75297;SDS011;63896;45.990;18.688;2023-04-15T04:48:29;9.55;;;4.75;;
75297;SDS011;63896;45.990;18.688;2023-04-15T04:51:32;15.23;;;7.10;;
75297;SDS011;63896;45.990;18.688;2023-04-15T04:54:36;11.67;;;6.97;;
75297;SDS011;63896;45.990;18.688;2023-04-15T04:57:38;10.75;;;5.47;;
75297;SDS011;63896;45.990;18.688;2023-04-15T05:00:51;12.90;;;6.38;;
75297;SDS011;63896;45.990;18.688;2023-04-15T05:03:54;10.38;;;5.47;;
75297;SDS011;63896;45.990;18.688;2023-04-15T05:06:57;10.73;;;5.47;;
75297;SDS011;63896;45.990;18.688;2023-04-15T05:10:01;9.70;;;4.30;;
75297;SDS011;63896;45.990;18.688;2023-04-15T05:13:05;11.32;;;6.28;;
75297;SDS011;63896;45.990;18.688;2023-04-15T05:16:08;9.82;;;5.70;;
75297;SDS011;63896;45.990;18.688;2023-04-15T05:19:11;8.07;;;4.35;;
75297;SDS011;63896;45.990;18.688;2023-04-15T05:22:14;6.22;;;2.83;;
75297;SDS011;63896;45.990;18.688;2023-04-15T05:25:17;5.33;;;3.10;;
75297;SDS011;63896;45.990;18.688;2023-04-15T05:28:20;5.53;;;3.10;;
75297;SDS011;63896;45.990;18.688;2023-04-15T05:31:23;5.80;;;3.42;;
75297;SDS011;63896;45.990;18.688;2023-04-15T05:34:26;8.77;;;4.10;;
75297;SDS011;63896;45.990;18.688;2023-04-15T05:37:29;8.73;;;4.05;;
75297;SDS011;63896;45.990;18.688;2023-04-15T05:40:32;8.00;;;4.20;;
75297;SDS011;63896;45.990;18.688;2023-04-15T05:43:35;9.48;;;4.40;;
75297;SDS011;63896;45.990;18.688;2023-04-15T05:46:37;8.55;;;4.82;;
75297;SDS011;63896;45.990;18.688;2023-04-15T05:49:41;9.02;;;5.25;;
75297;SDS011;63896;45.990;18.688;2023-04-15T05:52:43;5.97;;;3.70;;
75297;SDS011;63896;45.990;18.688;2023-04-15T05:55:47;13.13;;;3.90;;
75297;SDS011;63896;45.990;18.688;2023-04-15T05:58:50;6.45;;;3.67;;
75297;SDS011;63896;45.990;18.688;2023-04-15T06:01:55;6.90;;;4.15;;
75297;SDS011;63896;45.990;18.688;2023-04-15T06:04:58;24.08;;;12.85;;
75297;SDS011;63896;45.990;18.688;2023-04-15T06:08:02;7.28;;;4.10;;
75297;SDS011;63896;45.990;18.688;2023-04-15T06:11:05;8.70;;;4.33;;
75297;SDS011;63896;45.990;18.688;2023-04-15T06:14:08;8.05;;;4.78;;
75297;SDS011;63896;45.990;18.688;2023-04-15T06:17:11;5.97;;;3.70;;
75297;SDS011;63896;45.990;18.688;2023-04-15T06:20:16;6.18;;;3.80;;
75297;SDS011;63896;45.990;18.688;2023-04-15T06:23:19;4.85;;;3.55;;
75297;SDS011;63896;45.990;18.688;2023-04-15T06:26:22;7.37;;;3.70;;
75297;SDS011;63896;45.990;18.688;2023-04-15T06:29:25;5.55;;;3.90;;
75297;SDS011;63896;45.990;18.688;2023-04-15T06:32:28;6.55;;;3.50;;
75297;SDS011;63896;45.990;18.688;2023-04-15T06:35:31;7.95;;;4.43;;
75297;SDS011;63896;45.990;18.688;2023-04-15T06:38:34;7.90;;;4.70;;
75297;SDS011;63896;45.990;18.688;2023-04-15T06:41:37;9.03;;;3.83;;
75297;SDS011;63896;45.990;18.688;2023-04-15T06:44:40;6.85;;;3.20;;
75297;SDS011;63896;45.990;18.688;2023-04-15T06:47:43;7.80;;;3.72;;
75297;SDS011;63896;45.990;18.688;2023-04-15T06:50:46;5.28;;;3.80;;
75297;SDS011;63896;45.990;18.688;2023-04-15T06:53:51;4.78;;;3.50;;
75297;SDS011;63896;45.990;18.688;2023-04-15T06:56:54;3.73;;;2.70;;
75297;SDS011;63896;45.990;18.688;2023-04-15T06:59:57;5.65;;;4.10;;
75297;SDS011;63896;45.990;18.688;2023-04-15T07:03:00;7.45;;;4.25;;
75297;SDS011;63896;45.990;18.688;2023-04-15T07:06:05;6.63;;;3.97;;
75297;SDS011;63896;45.990;18.688;2023-04-15T07:09:08;13.23;;;7.60;;
75297;SDS011;63896;45.990;18.688;2023-04-15T07:12:12;12.17;;;7.30;;
75297;SDS011;63896;45.990;18.688;2023-04-15T07:15:15;11.30;;;6.28;;
75297;SDS011;63896;45.990;18.688;2023-04-15T07:18:18;14.63;;;6.78;;
75297;SDS011;63896;45.990;18.688;2023-04-15T07:21:21;13.55;;;7.25;;
75297;SDS011;63896;45.990;18.688;2023-04-15T07:24:24;8.88;;;5.93;;
75297;SDS011;63896;45.990;18.688;2023-04-15T07:27:28;9.30;;;5.07;;
75297;SDS011;63896;45.990;18.688;2023-04-15T07:30:31;10.25;;;5.63;;
75297;SDS011;63896;45.990;18.688;2023-04-15T07:33:34;11.20;;;6.10;;
75297;SDS011;63896;45.990;18.688;2023-04-15T07:36:38;14.23;;;8.68;;
75297;SDS011;63896;45.990;18.688;2023-04-15T07:39:44;9.70;;;6.43;;
75297;SDS011;63896;45.990;18.688;2023-04-15T07:42:47;11.83;;;6.30;;
75297;SDS011;63896;45.990;18.688;2023-04-15T07:45:50;7.78;;;4.65;;
75297;SDS011;63896;45.990;18.688;2023-04-15T07:48:54;8.63;;;5.00;;
75297;SDS011;63896;45.990;18.688;2023-04-15T07:51:57;11.32;;;6.00;;
75297;SDS011;63896;45.990;18.688;2023-04-15T07:55:01;5.53;;;3.97;;
75297;SDS011;63896;45.990;18.688;2023-04-15T07:58:04;5.43;;;3.80;;
75297;SDS011;63896;45.990;18.688;2023-04-15T08:01:07;7.82;;;5.18;;
75297;SDS011;63896;45.990;18.688;2023-04-15T08:04:10;9.52;;;5.25;;
75297;SDS011;63896;45.990;18.688;2023-04-15T08:07:13;8.45;;;5.75;;
75297;SDS011;63896;45.990;18.688;2023-04-15T08:10:16;8.63;;;4.72;;
75297;SDS011;63896;45.990;18.688;2023-04-15T08:13:19;9.37;;;4.97;;
75297;SDS011;63896;45.990;18.688;2023-04-15T08:16:23;9.60;;;6.20;;
75297;SDS011;63896;45.990;18.688;2023-04-15T08:19:29;8.82;;;4.82;;
75297;SDS011;63896;45.990;18.688;2023-04-15T08:22:32;7.78;;;4.78;;
75297;SDS011;63896;45.990;18.688;2023-04-15T08:25:35;4.97;;;3.20;;
75297;SDS011;63896;45.990;18.688;2023-04-15T08:28:39;15.90;;;10.20;;
75297;SDS011;63896;45.990;18.688;2023-04-15T08:31:43;11.43;;;7.40;;
75297;SDS011;63896;45.990;18.688;2023-04-15T08:34:47;5.63;;;3.63;;
75297;SDS011;63896;45.990;18.688;2023-04-15T08:37:50;5.63;;;3.67;;
75297;SDS011;63896;45.990;18.688;2023-04-15T08:40:53;6.45;;;3.67;;
75297;SDS011;63896;45.990;18.688;2023-04-15T08:44:00;4.83;;;2.87;;
75297;SDS011;63896;45.990;18.688;2023-04-15T08:47:07;7.50;;;4.40;;
75297;SDS011;63896;45.990;18.688;2023-04-15T08:50:10;20.48;;;7.45;;
75297;SDS011;63896;45.990;18.688;2023-04-15T08:53:14;9.70;;;5.47;;
75297;SDS011;63896;45.990;18.688;2023-04-15T08:56:17;9.93;;;5.65;;
75297;SDS011;63896;45.990;18.688;2023-04-15T08:59:21;9.70;;;5.80;;
75297;SDS011;63896;45.990;18.688;2023-04-15T09:02:25;6.68;;;3.42;;
75297;SDS011;63896;45.990;18.688;2023-04-15T09:05:31;14.00;;;7.72;;
75297;SDS011;63896;45.990;18.688;2023-04-15T09:08:35;18.90;;;9.20;;
75297;SDS011;63896;45.990;18.688;2023-04-15T09:11:38;33.95;;;14.35;;
75297;SDS011;63896;45.990;18.688;2023-04-15T09:14:41;32.00;;;11.57;;
75297;SDS011;63896;45.990;18.688;2023-04-15T09:17:44;16.80;;;7.65;;
75297;SDS011;63896;45.990;18.688;2023-04-15T09:20:48;12.27;;;5.93;;
75297;SDS011;63896;45.990;18.688;2023-04-15T09:23:56;4.68;;;2.90;;
75297;SDS011;63896;45.990;18.688;2023-04-15T09:27:01;9.13;;;5.25;;
75297;SDS011;63896;45.990;18.688;2023-04-15T09:30:07;16.47;;;7.43;;
75297;SDS011;63896;45.990;18.688;2023-04-15T09:33:10;5.53;;;2.95;;
75297;SDS011;63896;45.990;18.688;2023-04-15T09:36:16;4.72;;;3.25;;
75297;SDS011;63896;45.990;18.688;2023-04-15T09:39:19;3.90;;;2.75;;
75297;SDS011;63896;45.990;18.688;2023-04-15T09:42:22;7.03;;;3.45;;
75297;SDS011;63896;45.990;18.688;2023-04-15T09:45:26;4.47;;;3.17;;
75297;SDS011;63896;45.990;18.688;2023-04-15T09:48:31;3.85;;;2.00;;
75297;SDS011;63896;45.990;18.688;2023-04-15T09:51:34;4.20;;;2.80;;
75297;SDS011;63896;45.990;18.688;2023-04-15T09:54:37;2.53;;;1.80;;
75297;SDS011;63896;45.990;18.688;2023-04-15T09:57:40;4.57;;;2.13;;
75297;SDS011;63896;45.990;18.688;2023-04-15T10:00:44;2.30;;;1.70;;
75297;SDS011;63896;45.990;18.688;2023-04-15T10:03:48;3.50;;;2.22;;
75297;SDS011;63896;45.990;18.688;2023-04-15T10:06:53;3.53;;;1.50;;
75297;SDS011;63896;45.990;18.688;2023-04-15T10:09:55;4.63;;;1.30;;
75297;SDS011;63896;45.990;18.688;2023-04-15T10:13:01;0.82;;;0.70;;
75297;SDS011;63896;45.990;18.688;2023-04-15T10:16:04;1.90;;;1.10;;
75297;SDS011;63896;45.990;18.688;2023-04-15T10:19:08;4.90;;;1.50;;
75297;SDS011;63896;45.990;18.688;2023-04-15T10:22:13;2.00;;;1.10;;
75297;SDS011;63896;45.990;18.688;2023-04-15T10:25:16;4.50;;;1.73;;
75297;SDS011;63896;45.990;18.688;2023-04-15T10:28:20;2.13;;;1.90;;
75297;SDS011;63896;45.990;18.688;2023-04-15T10:31:27;1.80;;;1.30;;
75297;SDS011;63896;45.990;18.688;2023-04-15T10:34:31;1.60;;;0.95;;
75297;SDS011;63896;45.990;18.688;2023-04-15T10:37:34;2.80;;;1.27;;
75297;SDS011;63896;45.990;18.688;2023-04-15T10:40:38;1.58;;;1.13;;
75297;SDS011;63896;45.990;18.688;2023-04-15T10:44:00;1.50;;;1.20;;
75297;SDS011;63896;45.990;18.688;2023-04-15T10:47:14;2.30;;;1.60;;
75297;SDS011;63896;45.990;18.688;2023-04-15T10:50:20;1.15;;;0.57;;
75297;SDS011;63896;45.990;18.688;2023-04-15T10:53:29;0.70;;;0.60;;
75297;SDS011;63896;45.990;18.688;2023-04-15T10:56:33;1.65;;;0.88;;
75297;SDS011;63896;45.990;18.688;2023-04-15T10:59:37;1.20;;;0.52;;
75297;SDS011;63896;45.990;18.688;2023-04-15T11:03:07;1.63;;;0.63;;
75297;SDS011;63896;45.990;18.688;2023-04-15T11:06:11;3.05;;;1.00;;
75297;SDS011;63896;45.990;18.688;2023-04-15T11:09:32;0.95;;;0.70;;
75297;SDS011;63896;45.990;18.688;2023-04-15T11:12:39;1.10;;;1.00;;
75297;SDS011;63896;45.990;18.688;2023-04-15T11:15:44;1.85;;;0.95;;
75297;SDS011;63896;45.990;18.688;2023-04-15T11:18:54;1.90;;;1.17;;
75297;SDS011;63896;45.990;18.688;2023-04-15T11:21:57;1.33;;;0.80;;
75297;SDS011;63896;45.990;18.688;2023-04-15T11:25:08;1.50;;;0.65;;
75297;SDS011;63896;45.990;18.688;2023-04-15T11:28:11;1.50;;;0.90;;
75297;SDS011;63896;45.990;18.688;2023-04-15T11:31:15;1.15;;;0.32;;
75297;SDS011;63896;45.990;18.688;2023-04-15T11:34:23;3.00;;;1.63;;
75297;SDS011;63896;45.990;18.688;2023-04-15T11:37:28;3.05;;;0.98;;
75297;SDS011;63896;45.990;18.688;2023-04-15T11:40:33;1.58;;;0.90;;
75297;SDS011;63896;45.990;18.688;2023-04-15T11:43:37;0.60;;;0.60;;
75297;SDS011;63896;45.990;18.688;2023-04-15T11:46:39;0.90;;;0.82;;
75297;SDS011;63896;45.990;18.688;2023-04-15T11:49:44;1.43;;;0.70;;
75297;SDS011;63896;45.990;18.688;2023-04-15T11:52:56;0.82;;;0.43;;
75297;SDS011;63896;45.990;18.688;2023-04-15T11:55:59;0.50;;;0.50;;
75297;SDS011;63896;45.990;18.688;2023-04-15T11:59:02;2.78;;;1.20;;
75297;SDS011;63896;45.990;18.688;2023-04-15T12:02:12;0.93;;;0.30;;
75297;SDS011;63896;45.990;18.688;2023-04-15T12:05:15;0.73;;;0.50;;
75297;SDS011;63896;45.990;18.688;2023-04-15T12:08:19;0.60;;;0.45;;
75297;SDS011;63896;45.990;18.688;2023-04-15T12:17:33;1.38;;;0.50;;
75297;SDS011;63896;45.990;18.688;2023-04-15T12:20:53;1.33;;;0.40;;
75297;SDS011;63896;45.990;18.688;2023-04-15T12:23:56;1.67;;;0.30;;
75297;SDS011;63896;45.990;18.688;2023-04-15T12:27:03;0.85;;;0.40;;
75297;SDS011;63896;45.990;18.688;2023-04-15T12:30:10;0.57;;;0.30;;
75297;SDS011;63896;45.990;18.688;2023-04-15T12:33:13;1.17;;;0.20;;
75297;SDS011;63896;45.990;18.688;2023-04-15T12:36:16;0.93;;;0.83;;
75297;SDS011;63896;45.990;18.688;2023-04-15T12:39:23;0.95;;;0.60;;
75297;SDS011;63896;45.990;18.688;2023-04-15T12:42:31;2.35;;;0.30;;
75297;SDS011;63896;45.990;18.688;2023-04-15T12:45:34;0.95;;;0.30;;
75297;SDS011;63896;45.990;18.688;2023-04-15T12:48:37;2.42;;;0.60;;
75297;SDS011;63896;45.990;18.688;2023-04-15T12:51:40;3.93;;;0.40;;
75297;SDS011;63896;45.990;18.688;2023-04-15T12:54:43;1.58;;;0.60;;
75297;SDS011;63896;45.990;18.688;2023-04-15T12:57:46;2.72;;;0.65;;
75297;SDS011;63896;45.990;18.688;2023-04-15T13:00:50;0.43;;;0.43;;
75297;SDS011;63896;45.990;18.688;2023-04-15T13:03:53;1.20;;;0.70;;
75297;SDS011;63896;45.990;18.688;2023-04-15T13:06:56;2.00;;;0.40;;
75297;SDS011;63896;45.990;18.688;2023-04-15T13:09:58;0.75;;;0.38;;
75297;SDS011;63896;45.990;18.688;2023-04-15T13:13:01;0.60;;;0.20;;
75297;SDS011;63896;45.990;18.688;2023-04-15T13:16:04;2.10;;;1.00;;
75297;SDS011;63896;45.990;18.688;2023-04-15T13:19:08;4.80;;;2.25;;
75297;SDS011;63896;45.990;18.688;2023-04-15T13:22:11;3.20;;;1.87;;
75297;SDS011;63896;45.990;18.688;2023-04-15T13:25:16;4.18;;;1.55;;
75297;SDS011;63896;45.990;18.688;2023-04-15T13:28:19;3.95;;;1.95;;
75297;SDS011;63896;45.990;18.688;2023-04-15T13:31:21;3.67;;;1.92;;
75297;SDS011;63896;45.990;18.688;2023-04-15T13:34:24;4.90;;;2.25;;
75297;SDS011;63896;45.990;18.688;2023-04-15T13:37:27;1.67;;;1.20;;
75297;SDS011;63896;45.990;18.688;2023-04-15T13:40:31;3.95;;;1.10;;
75297;SDS011;63896;45.990;18.688;2023-04-15T13:43:34;0.90;;;0.50;;
75297;SDS011;63896;45.990;18.688;2023-04-15T13:46:37;1.42;;;1.02;;
75297;SDS011;63896;45.990;18.688;2023-04-15T13:49:42;3.67;;;1.70;;
75297;SDS011;63896;45.990;18.688;2023-04-15T13:52:45;1.07;;;0.50;;
75297;SDS011;63896;45.990;18.688;2023-04-15T13:55:48;0.80;;;0.40;;
75297;SDS011;63896;45.990;18.688;2023-04-15T13:58:51;3.88;;;2.00;;
75297;SDS011;63896;45.990;18.688;2023-04-15T14:01:56;2.13;;;1.38;;
75297;SDS011;63896;45.990;18.688;2023-04-15T14:04:59;1.50;;;0.80;;
75297;SDS011;63896;45.990;18.688;2023-04-15T14:08:02;3.07;;;0.60;;
75297;SDS011;63896;45.990;18.688;2023-04-15T14:11:05;1.55;;;1.08;;
75297;SDS011;63896;45.990;18.688;2023-04-15T14:14:08;0.82;;;0.50;;
75297;SDS011;63896;45.990;18.688;2023-04-15T14:17:11;1.45;;;0.30;;
75297;SDS011;63896;45.990;18.688;2023-04-15T14:20:14;2.72;;;0.40;;
75297;SDS011;63896;45.990;18.688;2023-04-15T14:23:18;0.67;;;0.60;;
75297;SDS011;63896;45.990;18.688;2023-04-15T14:26:21;2.88;;;0.60;;
75297;SDS011;63896;45.990;18.688;2023-04-15T14:29:24;0.63;;;0.40;;
75297;SDS011;63896;45.990;18.688;2023-04-15T14:32:27;1.67;;;0.80;;
75297;SDS011;63896;45.990;18.688;2023-04-15T14:35:30;1.10;;;0.95;;
75297;SDS011;63896;45.990;18.688;2023-04-15T14:38:34;3.00;;;1.00;;
75297;SDS011;63896;45.990;18.688;2023-04-15T14:41:41;2.47;;;0.98;;
75297;SDS011;63896;45.990;18.688;2023-04-15T14:44:44;1.90;;;0.80;;
75297;SDS011;63896;45.990;18.688;2023-04-15T14:47:47;3.17;;;1.70;;
75297;SDS011;63896;45.990;18.688;2023-04-15T14:50:50;1.95;;;0.90;;
75297;SDS011;63896;45.990;18.688;2023-04-15T14:53:54;1.20;;;0.47;;
75297;SDS011;63896;45.990;18.688;2023-04-15T14:56:57;0.85;;;0.40;;
75297;SDS011;63896;45.990;18.688;2023-04-15T15:00:00;0.85;;;0.40;;
75297;SDS011;63896;45.990;18.688;2023-04-15T15:03:03;1.42;;;0.47;;
75297;SDS011;63896;45.990;18.688;2023-04-15T15:06:14;1.00;;;0.50;;
75297;SDS011;63896;45.990;18.688;2023-04-15T15:09:17;8.03;;;4.03;;
75297;SDS011;63896;45.990;18.688;2023-04-15T15:12:21;2.95;;;1.13;;
75297;SDS011;63896;45.990;18.688;2023-04-15T15:15:25;3.58;;;1.48;;
75297;SDS011;63896;45.990;18.688;2023-04-15T15:18:30;2.88;;;1.55;;
75297;SDS011;63896;45.990;18.688;2023-04-15T15:21:33;3.08;;;1.80;;
75297;SDS011;63896;45.990;18.688;2023-04-15T15:24:36;1.50;;;0.40;;
75297;SDS011;63896;45.990;18.688;2023-04-15T15:27:39;3.92;;;1.98;;
75297;SDS011;63896;45.990;18.688;2023-04-15T15:30:42;3.03;;;1.40;;
75297;SDS011;63896;45.990;18.688;2023-04-15T15:33:45;3.25;;;2.10;;
75297;SDS011;63896;45.990;18.688;2023-04-15T15:36:48;2.33;;;1.33;;
75297;SDS011;63896;45.990;18.688;2023-04-15T15:39:51;1.23;;;0.77;;
75297;SDS011;63896;45.990;18.688;2023-04-15T15:42:54;3.42;;;0.73;;
75297;SDS011;63896;45.990;18.688;2023-04-15T15:45:57;1.67;;;0.93;;
75297;SDS011;63896;45.990;18.688;2023-04-15T15:49:01;4.50;;;0.80;;
75297;SDS011;63896;45.990;18.688;2023-04-15T15:52:05;2.55;;;1.17;;
75297;SDS011;63896;45.990;18.688;2023-04-15T15:55:08;1.87;;;1.10;;
75297;SDS011;63896;45.990;18.688;2023-04-15T15:58:11;4.53;;;1.60;;
75297;SDS011;63896;45.990;18.688;2023-04-15T16:01:14;5.55;;;2.15;;
75297;SDS011;63896;45.990;18.688;2023-04-15T16:04:18;5.97;;;2.00;;
75297;SDS011;63896;45.990;18.688;2023-04-15T16:07:21;3.60;;;1.90;;
75297;SDS011;63896;45.990;18.688;2023-04-15T16:10:24;6.07;;;1.93;;
75297;SDS011;63896;45.990;18.688;2023-04-15T16:13:27;4.18;;;2.25;;
75297;SDS011;63896;45.990;18.688;2023-04-15T16:16:30;6.30;;;4.25;;
75297;SDS011;63896;45.990;18.688;2023-04-15T16:19:33;3.60;;;2.10;;
75297;SDS011;63896;45.990;18.688;2023-04-15T16:22:36;3.58;;;1.38;;
75297;SDS011;63896;45.990;18.688;2023-04-15T16:25:42;3.30;;;1.20;;
75297;SDS011;63896;45.990;18.688;2023-04-15T16:28:46;5.93;;;1.55;;
75297;SDS011;63896;45.990;18.688;2023-04-15T16:31:49;2.78;;;1.63;;
75297;SDS011;63896;45.990;18.688;2023-04-15T16:34:52;2.53;;;1.50;;
75297;SDS011;63896;45.990;18.688;2023-04-15T16:37:55;2.90;;;1.60;;
75297;SDS011;63896;45.990;18.688;2023-04-15T16:40:59;5.73;;;2.50;;
75297;SDS011;63896;45.990;18.688;2023-04-15T16:44:03;5.60;;;3.17;;
75297;SDS011;63896;45.990;18.688;2023-04-15T16:47:06;5.60;;;2.70;;
75297;SDS011;63896;45.990;18.688;2023-04-15T16:50:12;8.02;;;2.65;;
75297;SDS011;63896;45.990;18.688;2023-04-15T16:53:15;9.00;;;2.95;;
75297;SDS011;63896;45.990;18.688;2023-04-15T16:56:18;2.40;;;1.03;;
75297;SDS011;63896;45.990;18.688;2023-04-15T16:59:24;1.33;;;0.70;;
75297;SDS011;63896;45.990;18.688;2023-04-15T17:02:28;10.63;;;1.77;;
75297;SDS011;63896;45.990;18.688;2023-04-15T17:05:43;7.70;;;1.50;;
75297;SDS011;63896;45.990;18.688;2023-04-15T17:08:47;10.82;;;1.73;;
75297;SDS011;63896;45.990;18.688;2023-04-15T17:12:02;3.23;;;0.47;;
75297;SDS011;63896;45.990;18.688;2023-04-15T17:15:38;1.50;;;0.52;;
75297;SDS011;63896;45.990;18.688;2023-04-15T17:19:14;3.13;;;1.30;;
75297;SDS011;63896;45.990;18.688;2023-04-15T17:22:18;7.80;;;1.95;;
75297;SDS011;63896;45.990;18.688;2023-04-15T17:25:21;6.90;;;2.75;;
75297;SDS011;63896;45.990;18.688;2023-04-15T17:28:24;8.90;;;3.80;;
75297;SDS011;63896;45.990;18.688;2023-04-15T17:31:28;5.50;;;2.63;;
75297;SDS011;63896;45.990;18.688;2023-04-15T17:34:31;6.88;;;3.65;;
75297;SDS011;63896;45.990;18.688;2023-04-15T17:37:52;8.40;;;2.80;;
75297;SDS011;63896;45.990;18.688;2023-04-15T17:40:55;5.57;;;3.20;;
75297;SDS011;63896;45.990;18.688;2023-04-15T17:43:58;6.70;;;2.93;;
75297;SDS011;63896;45.990;18.688;2023-04-15T17:47:01;6.43;;;2.38;;
75297;SDS011;63896;45.990;18.688;2023-04-15T17:50:05;6.88;;;3.53;;
75297;SDS011;63896;45.990;18.688;2023-04-15T17:53:09;5.35;;;2.97;;
75297;SDS011;63896;45.990;18.688;2023-04-15T17:56:12;5.03;;;1.77;;
75297;SDS011;63896;45.990;18.688;2023-04-15T17:59:16;1.70;;;1.10;;
75297;SDS011;63896;45.990;18.688;2023-04-15T18:02:19;6.38;;;1.05;;
75297;SDS011;63896;45.990;18.688;2023-04-15T18:05:23;3.15;;;1.77;;
75297;SDS011;63896;45.990;18.688;2023-04-15T18:08:26;2.03;;;1.50;;
75297;SDS011;63896;45.990;18.688;2023-04-15T18:11:31;4.28;;;1.92;;
75297;SDS011;63896;45.990;18.688;2023-04-15T18:14:35;8.33;;;4.50;;
75297;SDS011;63896;45.990;18.688;2023-04-15T18:17:38;7.82;;;4.93;;